Terminal Aerodrome Forecast
Issued by NWS Jackson, MS

Home | Current Version | Previous Version | Text Only | Print | Product List | Glossary On
Versions: 1 2 3 4 5 6 7 8 9 10 11 12 13 14
000
FTUS44 KJAN 300600 RRA
TAFGWO
TAF
KGWO 300600Z 3006/0106 16016G24KT P6SM BKN035 OVC100
     FM301200 17015G30KT 5SM TSRA SCT015 BKN025CB OVC050
      TEMPO 3013/3016 3SM +TSRA BKN015CB
     FM301700 20012G20KT P6SM SHRA SCT025 OVC040
     FM010000 19011KT P6SM BKN100=

USA.gov is the U.S. government's official web portal to all federal, state and local government web resources and services.